Frenzy — SA9057 — position and weather

sailwx.info

Track history (hours):
 
Tides and Currents Weather Stations Pressure Air Temp Water Temp Dewpoint Dewpoint Depression Visibility Wind Speed Wind Dir Waves Ship Positions

Frenzy

Last reported at 2016-Jul-29 07:34 UTC. Time now 2016-Jul-29 07:54 UTC.
Position N 39°26' E 002°31'.

Length 11 m.

Type: Pleasure craft. MMSI: 265610080.

Date/timePositionNaut miles runAvg speedWind from/ knotsBaromVisibWave heightAir tempDewpointWater temp
2016-Jul-29 07:34N 39°26' E 002°31'5 5.2
2016-Jul-29 06:33N 39°28' E 002°37'5 5.2
2016-Jul-29 05:33N 39°30' E 002°44'1 0.0
2016-Jul-27 15:31N 39°30' E 002°45'0 0.0
2016-Jul-27 14:31N 39°30' E 002°45'0 0.0
2016-Jul-27 13:31N 39°30' E 002°45'0 0.0
2016-Jul-27 12:31N 39°30' E 002°45'3 3.6
2016-Jul-27 11:33N 39°29' E 002°41'5 4.6
2016-Jul-27 10:32N 39°28' E 002°35'6 4.8
2016-Jul-27 09:23N 39°28' E 002°28'17 0.7
2016-Jul-26 10:22N 39°44' E 002°32'5 5.4
2016-Jul-26 09:22N 39°47' E 002°38'3 0.1
2016-Jul-25 12:33N 39°48' E 002°42'1 1.0
2016-Jul-25 11:32N 39°48' E 002°40'  
2016-Jul-22 11:28N 39°31' E 002°23'6 4.9
2016-Jul-22 10:13N 39°27' E 002°30'3 4.2
2016-Jul-22 09:33N 39°29' E 002°33'4 4.2
2016-Jul-22 08:33N 39°30' E 002°38'5 5.1
2016-Jul-22 07:33N 39°30' E 002°45'  
Track history (hours):
 
Tides and Currents Weather Stations Pressure Air Temp Water Temp Dewpoint Dewpoint Depression Visibility Wind Speed Wind Dir Waves Ship Positions

Frenzy

Last reported at 2016-Jul-29 07:34 UTC. Time now 2016-Jul-29 07:54 UTC.
Position N 39°26' E 002°31'.

Length 11 m.

Type: Pleasure craft. MMSI: 265610080.

Date/timePositionNaut miles runAvg speedWind from/ knotsBaromVisibWave heightAir tempDewpointWater temp
2016-Jul-29 07:34N 39°26' E 002°31'5 5.2
2016-Jul-29 06:33N 39°28' E 002°37'5 5.2
2016-Jul-29 05:33N 39°30' E 002°44'1 0.0
2016-Jul-27 15:31N 39°30' E 002°45'0 0.0
2016-Jul-27 14:31N 39°30' E 002°45'0 0.0
2016-Jul-27 13:31N 39°30' E 002°45'0 0.0
2016-Jul-27 12:31N 39°30' E 002°45'3 3.6
2016-Jul-27 11:33N 39°29' E 002°41'5 4.6
2016-Jul-27 10:32N 39°28' E 002°35'6 4.8
2016-Jul-27 09:23N 39°28' E 002°28'17 0.7
2016-Jul-26 10:22N 39°44' E 002°32'5 5.4
2016-Jul-26 09:22N 39°47' E 002°38'3 0.1
2016-Jul-25 12:33N 39°48' E 002°42'1 1.0
2016-Jul-25 11:32N 39°48' E 002°40'  
2016-Jul-22 11:28N 39°31' E 002°23'6 4.9
2016-Jul-22 10:13N 39°27' E 002°30'3 4.2
2016-Jul-22 09:33N 39°29' E 002°33'4 4.2
2016-Jul-22 08:33N 39°30' E 002°38'5 5.1
2016-Jul-22 07:33N 39°30' E 002°45'  

Dump ship's entire track history